Shindler, South Dakota
Current Conditions -  °F | °C
As of 4:56 PM on Monday 22 Dec 2014 (Local Time) from KFSD Reporting Station
Light Rain Light Rain  
Wind Chill: 32°   Ceiling: 700
Heat Index: 37°   Visibility: 5mi
Dew Point: 36°   Wind: 6mph
Humidity: 96%   Direction: 320°NW
Pressure: 29.43"   Gusts: NA
Location:  43.5199°N, 96.7933°W
Report Text: KFSD 222256Z 32005KT 5SM -RA BR OVC007 03/02 A2943 RMK AO2 RAE08B47DZB08E47 SLP975 P0000 T00280022 $
Loading
Personal Weather Stations






























Interactive Weather Map New forecast layout! Learn more

10-Day Weather Forecast

Advertisements
Track Severe Weather on mobile